aviador You're here:

KFRM Decoded Metar

FAIRMONT MUNI in MN, USA
Report Time2017-11-24 10:56:00
UTC Time2017-11-24 11:20:30
Flight Rules vfr VFR
Wind200° at 11 kt
W.Decomp.*RWY 20: 11.0 kt HW 0.8 kt LCW
RWY 13: 4.5 kt HW 10.0 kt RCW
W.Rank200° ranks 11
Current wind is above 200° avg. (9.5)
Visibility9999 m
Phenomena:N/A
Clouds:N/A
Expected CloudBase > 800 ft AGL from Temp-Dew spread
CeilingNone
Temp04°C (ISA -9)
Dew Point02°C (87% RH)
AAT-1.6°C
QNH998 hPa
Density Alt725 ft
Elevation1,161 ft
Report Wrong Elevation
Raw Report
KFRM 241056Z AUTO 20011KT 10SM CLR 04/02 A2948 RMK AO2 SLP992
T00390017=

Extra information for KFRM:More info

Metar Taf Metar & Taf Last 4 Metars F.Rules Stats Wind Profile Meteogram Temp Stats Airport Information Weather charts Add Link Nearby VenuesMetar ALERT Operation Metar Decoded Social comments

AIRNAV info for KFRM